Time;durP1;ratioP1;P1;durP2;ratioP2;P2;SDS_P1;SDS_P2;PMS_P1;PMS_P2;Temp;Humidity;BMP_temperature;BMP_pressure;BME280_temperature;BME280_humidity;BME280_pressure;Samples;Min_cycle;Max_cycle;Signal;HPM_P1;HPM_P2
2021/09/08 00:00:10;;;;;;;11.57;8.60;;;17.40;99.90;;;;;;5089305;28;20256;-72
2021/09/08 00:02:36;;;;;;;8.57;7.80;;;17.40;99.90;;;;;;5089102;28;20329;-72
2021/09/08 00:05:04;;;;;;;11.20;7.83;;;17.40;99.90;;;;;;5089052;28;20211;-72
2021/09/08 00:07:30;;;;;;;8.83;7.33;;;17.40;99.90;;;;;;5088911;28;20741;-72
2021/09/08 00:09:57;;;;;;;10.13;7.73;;;17.40;99.90;;;;;;5088828;28;20250;-72
2021/09/08 00:12:25;;;;;;;8.83;7.93;;;17.30;99.90;;;;;;5088761;28;20202;-72
2021/09/08 00:14:51;;;;;;;9.33;8.23;;;17.30;99.90;;;;;;5088666;28;20661;-72
2021/09/08 00:17:18;;;;;;;8.37;7.53;;;17.30;99.90;;;;;;5088960;28;20292;-72
2021/09/08 00:19:45;;;;;;;8.43;7.63;;;17.30;99.90;;;;;;5088932;28;20210;-72
2021/09/08 00:22:11;;;;;;;8.73;7.93;;;17.30;99.90;;;;;;5088126;28;20230;-72
2021/09/08 00:24:38;;;;;;;8.10;7.43;;;17.30;99.90;;;;;;5088850;28;20260;-71
2021/09/08 00:27:06;;;;;;;8.93;8.13;;;17.30;99.90;;;;;;5088683;28;20505;-70
2021/09/08 00:29:34;;;;;;;8.80;7.90;;;17.20;99.90;;;;;;5088575;28;20215;-70
2021/09/08 00:32:01;;;;;;;8.10;7.43;;;17.20;99.90;;;;;;5088633;28;20223;-70
2021/09/08 00:34:28;;;;;;;10.57;7.70;;;17.20;99.90;;;;;;5088471;28;20234;-70
2021/09/08 00:36:54;;;;;;;8.00;7.30;;;17.20;99.90;;;;;;5088838;28;20655;-70
2021/09/08 00:39:21;;;;;;;8.27;7.57;;;17.20;99.90;;;;;;5088629;28;20199;-70
2021/09/08 00:41:48;;;;;;;9.43;8.43;;;17.10;99.90;;;;;;5088641;28;20232;-72
2021/09/08 00:44:15;;;;;;;8.17;7.47;;;17.00;99.90;;;;;;5088396;28;20218;-71
2021/09/08 00:46:44;;;;;;;8.27;7.50;;;17.00;99.90;;;;;;5088354;28;20283;-71
2021/09/08 00:49:12;;;;;;;8.17;7.37;;;17.00;99.90;;;;;;5088587;28;20198;-71
2021/09/08 00:51:40;;;;;;;10.10;7.67;;;17.00;99.90;;;;;;5088576;28;20215;-72
2021/09/08 00:54:11;;;;;;;8.40;7.50;;;17.00;99.90;;;;;;5088114;28;20241;-72
2021/09/08 00:56:38;;;;;;;8.13;7.43;;;16.90;99.90;;;;;;5088029;28;20234;-72
2021/09/08 00:59:05;;;;;;;9.10;8.20;;;16.90;99.90;;;;;;5088087;28;20263;-71
2021/09/08 01:01:32;;;;;;;9.10;8.27;;;16.90;99.90;;;;;;5088009;28;20601;-72
2021/09/08 01:03:59;;;;;;;8.27;7.50;;;16.80;99.90;;;;;;5088067;28;20351;-70
2021/09/08 01:06:26;;;;;;;9.00;8.10;;;16.80;99.90;;;;;;5087867;28;20210;-70
2021/09/08 01:08:54;;;;;;;8.67;7.67;;;16.80;99.90;;;;;;5088081;28;20269;-70
2021/09/08 01:11:21;;;;;;;9.47;7.77;;;16.80;99.90;;;;;;5087746;28;20207;-72
2021/09/08 01:13:48;;;;;;;8.43;7.57;;;16.70;99.90;;;;;;5087918;28;20211;-72
2021/09/08 01:16:14;;;;;;;10.00;8.20;;;16.80;99.90;;;;;;5087583;28;20268;-72
2021/09/08 01:18:45;;;;;;;8.70;7.40;;;16.80;99.90;;;;;;5087762;28;20252;-73
2021/09/08 01:21:13;;;;;;;8.53;7.60;;;16.80;99.90;;;;;;5087884;28;20260;-72
2021/09/08 01:23:41;;;;;;;8.10;7.30;;;16.70;99.90;;;;;;5087833;28;20248;-72
2021/09/08 01:26:09;;;;;;;8.27;7.57;;;16.70;99.90;;;;;;5087733;28;20604;-72
2021/09/08 01:28:36;;;;;;;7.73;7.10;;;16.70;99.90;;;;;;5087898;28;20198;-72
2021/09/08 01:31:03;;;;;;;8.23;7.43;;;16.70;99.90;;;;;;5087890;28;20222;-72
2021/09/08 01:33:29;;;;;;;8.10;7.40;;;16.70;99.90;;;;;;5087512;28;20226;-72
2021/09/08 01:35:56;;;;;;;8.20;7.50;;;16.70;99.90;;;;;;5091173;28;20264;-72
2021/09/08 01:38:23;;;;;;;7.60;7.00;;;16.70;99.90;;;;;;5091864;28;20199;-72
2021/09/08 01:40:51;;;;;;;10.03;7.73;;;16.70;99.90;;;;;;5091685;28;20229;-72
2021/09/08 01:43:23;;;;;;;8.23;7.50;;;16.60;99.90;;;;;;5091645;28;20233;-71
2021/09/08 01:45:51;;;;;;;8.67;7.57;;;16.60;99.90;;;;;;5091645;28;20195;-72
2021/09/08 01:48:19;;;;;;;8.83;7.83;;;16.60;99.90;;;;;;5091720;28;20257;-71
2021/09/08 01:50:45;;;;;;;8.93;8.00;;;16.60;99.90;;;;;;5091691;28;20217;-72
2021/09/08 01:53:13;;;;;;;8.80;8.00;;;16.60;99.90;;;;;;5091264;28;20726;-72
2021/09/08 01:55:40;;;;;;;8.33;7.47;;;16.60;99.90;;;;;;5091370;28;20326;-72
2021/09/08 01:58:11;;;;;;;8.57;7.77;;;16.60;99.90;;;;;;5091678;28;20386;-72
2021/09/08 02:00:37;;;;;;;10.00;8.10;;;16.60;99.90;;;;;;5091628;28;20294;-71
2021/09/08 02:03:04;;;;;;;8.00;7.30;;;16.60;99.90;;;;;;5091483;28;20261;-71
2021/09/08 02:05:32;;;;;;;8.40;7.50;;;16.50;99.90;;;;;;5091234;28;20203;-71
2021/09/08 02:07:58;;;;;;;8.10;7.40;;;16.50;99.90;;;;;;5091355;28;20252;-74
2021/09/08 02:10:25;;;;;;;8.23;7.43;;;16.50;99.90;;;;;;5090904;28;20708;-73
2021/09/08 02:12:52;;;;;;;10.73;8.10;;;16.50;99.90;;;;;;5091204;28;20239;-73
2021/09/08 02:15:20;;;;;;;8.67;7.83;;;16.50;99.90;;;;;;5091051;28;20667;-73
2021/09/08 02:17:47;;;;;;;8.07;7.10;;;16.50;99.90;;;;;;5091345;28;20264;-73
2021/09/08 02:20:13;;;;;;;7.93;7.17;;;16.40;99.90;;;;;;5091067;28;20304;-73
2021/09/08 02:22:40;;;;;;;8.70;7.80;;;16.40;99.90;;;;;;5090923;28;20231;-73
2021/09/08 02:25:07;;;;;;;9.67;8.67;;;16.40;99.90;;;;;;5091084;28;20215;-73
2021/09/08 02:27:34;;;;;;;8.57;7.80;;;16.40;99.90;;;;;;5090971;28;20267;-73
2021/09/08 02:30:00;;;;;;;9.03;8.13;;;16.40;99.90;;;;;;5090442;28;20222;-73
2021/09/08 02:32:28;;;;;;;9.17;8.27;;;16.30;99.90;;;;;;5090754;28;20206;-73
2021/09/08 02:34:55;;;;;;;9.63;8.60;;;16.30;99.90;;;;;;5090945;28;20232;-74
2021/09/08 02:37:21;;;;;;;8.90;8.10;;;16.30;99.90;;;;;;5090773;28;20260;-73
2021/09/08 02:39:48;;;;;;;8.03;7.30;;;16.30;99.90;;;;;;5090834;28;20554;-73
2021/09/08 02:42:15;;;;;;;9.27;8.03;;;16.30;99.90;;;;;;5090461;28;21070;-73
2021/09/08 02:44:42;;;;;;;11.87;9.10;;;16.30;99.90;;;;;;5090898;28;20289;-71
2021/09/08 02:47:09;;;;;;;8.30;7.50;;;16.30;99.90;;;;;;5090458;28;20211;-72
2021/09/08 02:49:37;;;;;;;8.30;7.60;;;16.30;99.90;;;;;;5090346;28;20578;-71
2021/09/08 02:52:04;;;;;;;8.90;8.10;;;16.20;99.90;;;;;;5090802;28;20215;-71
2021/09/08 02:54:31;;;;;;;8.43;7.30;;;16.20;99.90;;;;;;5090301;28;20268;-73
2021/09/08 02:56:58;;;;;;;8.43;7.63;;;16.20;99.90;;;;;;5090235;28;20777;-73
2021/09/08 02:59:24;;;;;;;9.33;8.43;;;16.10;99.90;;;;;;5090089;28;20676;-73
2021/09/08 03:01:53;;;;;;;10.23;8.33;;;16.10;99.90;;;;;;5090509;28;20207;-72
2021/09/08 03:04:19;;;;;;;9.43;7.73;;;16.10;99.90;;;;;;5090067;28;20203;-72
2021/09/08 03:06:48;;;;;;;8.23;7.43;;;16.10;99.90;;;;;;5090342;28;20202;-72
2021/09/08 03:09:14;;;;;;;9.43;7.97;;;16.10;99.90;;;;;;5089697;28;20806;-72
2021/09/08 03:11:42;;;;;;;8.60;7.77;;;16.10;99.90;;;;;;5090282;28;20238;-71
2021/09/08 03:14:09;;;;;;;9.23;8.33;;;16.10;99.90;;;;;;5090085;28;20218;-72
2021/09/08 03:16:35;;;;;;;8.60;7.80;;;16.00;99.90;;;;;;5090184;28;20545;-72
2021/09/08 03:19:03;;;;;;;9.07;8.27;;;16.00;99.90;;;;;;5090253;28;20203;-72
2021/09/08 03:21:29;;;;;;;9.10;8.23;;;16.00;99.90;;;;;;5089986;28;20596;-72
2021/09/08 03:23:57;;;;;;;10.37;7.87;;;15.90;99.90;;;;;;5089595;28;20234;-72
2021/09/08 03:26:24;;;;;;;9.07;7.93;;;15.90;99.90;;;;;;5090002;28;20203;-72
2021/09/08 03:28:50;;;;;;;9.63;7.77;;;15.90;99.90;;;;;;5089961;28;20291;-72
2021/09/08 03:31:17;;;;;;;9.23;7.77;;;15.90;99.90;;;;;;5089800;28;20295;-74
2021/09/08 03:33:43;;;;;;;8.77;7.87;;;15.90;99.90;;;;;;5089262;28;20751;-74
2021/09/08 03:36:10;;;;;;;8.10;7.30;;;15.90;99.90;;;;;;5089939;28;20199;-74
2021/09/08 03:38:37;;;;;;;8.40;7.60;;;15.80;99.90;;;;;;5089646;28;20268;-74
2021/09/08 03:41:05;;;;;;;9.53;8.57;;;15.80;99.90;;;;;;5089496;28;20708;-74
2021/09/08 03:43:31;;;;;;;8.33;7.53;;;15.80;99.90;;;;;;5089431;28;20276;-74
2021/09/08 03:45:58;;;;;;;8.07;7.37;;;15.80;99.90;;;;;;5089584;28;20210;-74
2021/09/08 03:48:25;;;;;;;8.67;7.87;;;15.80;99.90;;;;;;5089088;28;20576;-72
2021/09/08 03:50:54;;;;;;;8.40;7.53;;;15.80;99.90;;;;;;5089559;28;20235;-72
2021/09/08 03:53:21;;;;;;;9.00;8.20;;;15.80;99.90;;;;;;5089297;28;20292;-72
2021/09/08 03:55:47;;;;;;;8.60;7.90;;;15.80;99.90;;;;;;5089131;28;20247;-72
2021/09/08 03:58:15;;;;;;;8.73;7.93;;;15.80;99.90;;;;;;5088662;28;20621;-71
2021/09/08 04:00:42;;;;;;;12.43;7.70;;;15.80;99.90;;;;;;5089350;28;20210;-71
2021/09/08 04:03:10;;;;;;;8.53;7.73;;;15.70;99.90;;;;;;5088865;28;20742;-71
2021/09/08 04:05:36;;;;;;;8.83;8.00;;;15.80;99.90;;;;;;5089221;28;20202;-71
2021/09/08 04:08:03;;;;;;;11.23;8.00;;;15.70;99.90;;;;;;5089083;28;20642;-71
2021/09/08 04:10:30;;;;;;;7.97;7.20;;;15.70;99.90;;;;;;5089067;28;20683;-71
2021/09/08 04:12:56;;;;;;;8.77;8.00;;;15.70;99.90;;;;;;5089247;28;20249;-71
2021/09/08 04:15:24;;;;;;;9.50;8.47;;;15.70;99.90;;;;;;5088869;28;20611;-71
2021/09/08 04:17:51;;;;;;;8.30;7.47;;;15.70;99.90;;;;;;5089079;28;20245;-70
2021/09/08 04:20:17;;;;;;;9.77;8.87;;;15.70;99.90;;;;;;5088660;28;20672;-71
2021/09/08 04:22:44;;;;;;;8.47;7.67;;;15.70;99.90;;;;;;5088869;28;20223;-71
2021/09/08 04:25:11;;;;;;;8.77;7.90;;;15.70;99.90;;;;;;5089105;28;20198;-71
2021/09/08 04:27:38;;;;;;;10.17;8.30;;;15.60;99.90;;;;;;5088886;28;20211;-71
2021/09/08 04:30:06;;;;;;;11.17;7.87;;;15.60;99.90;;;;;;5088547;28;20273;-72
2021/09/08 04:32:34;;;;;;;9.50;8.37;;;15.60;99.90;;;;;;5087930;28;20292;-72
2021/09/08 04:35:00;;;;;;;8.37;7.57;;;15.60;99.90;;;;;;5088839;28;20206;-72
2021/09/08 04:37:27;;;;;;;9.57;8.70;;;15.60;99.90;;;;;;5088538;28;20206;-72
2021/09/08 04:39:54;;;;;;;9.60;8.27;;;15.60;99.90;;;;;;5088525;28;20725;-72
2021/09/08 04:42:20;;;;;;;11.97;8.90;;;15.60;99.90;;;;;;5088512;28;20214;-72
2021/09/08 04:44:47;;;;;;;9.70;8.20;;;15.60;99.90;;;;;;5088481;28;20404;-73
2021/09/08 04:47:14;;;;;;;9.43;8.50;;;15.60;99.90;;;;;;5088468;28;20628;-73
2021/09/08 04:49:43;;;;;;;9.60;8.07;;;15.50;99.90;;;;;;5088564;28;20206;-73
2021/09/08 04:52:09;;;;;;;8.80;7.90;;;15.50;99.90;;;;;;5088536;28;20234;-73
2021/09/08 04:54:37;;;;;;;9.50;8.40;;;15.50;99.90;;;;;;5088342;28;20230;-73
2021/09/08 04:57:04;;;;;;;12.00;8.67;;;15.50;99.90;;;;;;5088321;28;20648;-72
2021/09/08 04:59:30;;;;;;;8.90;8.00;;;15.50;99.90;;;;;;5088289;28;20207;-72
2021/09/08 05:01:57;;;;;;;15.33;8.97;;;15.50;99.90;;;;;;5088330;28;20752;-73
2021/09/08 05:04:24;;;;;;;9.23;8.17;;;15.50;99.90;;;;;;5088324;28;20262;-72
2021/09/08 05:06:51;;;;;;;9.10;8.07;;;15.40;99.90;;;;;;5088158;28;20234;-73
2021/09/08 05:09:18;;;;;;;9.63;8.63;;;15.50;99.90;;;;;;5090658;28;20287;-72
2021/09/08 05:11:45;;;;;;;9.67;8.33;;;15.50;99.90;;;;;;5092430;28;20215;-72
2021/09/08 05:14:11;;;;;;;8.40;7.60;;;15.50;99.90;;;;;;5092478;28;20263;-72
2021/09/08 05:16:40;;;;;;;8.70;7.87;;;15.50;99.90;;;;;;5092357;28;20549;-72
2021/09/08 05:19:07;;;;;;;9.00;6.90;;;15.50;99.90;;;;;;5092258;28;20234;-72
2021/09/08 05:21:33;;;;;;;10.63;8.30;;;15.50;99.90;;;;;;5092380;28;20203;-72
2021/09/08 05:24:01;;;;;;;9.53;8.57;;;15.50;99.90;;;;;;5092061;28;20230;-72
2021/09/08 05:26:28;;;;;;;12.43;9.37;;;15.50;99.90;;;;;;5091974;28;20211;-71
2021/09/08 05:28:54;;;;;;;15.37;10.70;;;15.60;99.90;;;;;;5092167;28;20242;-71
2021/09/08 05:31:21;;;;;;;20.10;10.43;;;15.60;99.90;;;;;;5091501;28;20699;-71
2021/09/08 05:33:48;;;;;;;12.10;9.93;;;15.60;99.90;;;;;;5092087;28;20230;-70
2021/09/08 05:36:15;;;;;;;11.80;10.43;;;15.60;99.90;;;;;;5091755;28;20718;-71
2021/09/08 05:38:42;;;;;;;16.37;10.07;;;15.70;99.90;;;;;;5091945;28;20203;-71
2021/09/08 05:41:10;;;;;;;16.80;10.07;;;15.70;99.90;;;;;;5091960;28;20213;-71
2021/09/08 05:43:37;;;;;;;14.60;10.50;;;15.70;99.90;;;;;;5091655;28;20230;-72
2021/09/08 05:46:04;;;;;;;13.40;10.47;;;15.80;99.90;;;;;;5091829;28;20234;-72
2021/09/08 05:48:33;;;;;;;13.53;10.80;;;15.80;99.90;;;;;;5091850;28;20207;-72
2021/09/08 05:50:59;;;;;;;16.30;11.57;;;15.80;99.90;;;;;;5091592;28;20285;-72
2021/09/08 05:53:26;;;;;;;14.60;12.47;;;15.90;99.90;;;;;;5091419;28;20267;-73
2021/09/08 05:55:54;;;;;;;15.40;12.20;;;16.00;99.90;;;;;;5091309;28;20449;-72
2021/09/08 05:58:23;;;;;;;14.07;12.03;;;16.00;99.90;;;;;;5091332;28;21123;-73
2021/09/08 06:00:49;;;;;;;18.53;13.40;;;16.00;99.90;;;;;;5084729;28;20663;-72
2021/09/08 06:03:16;;;;;;;16.70;13.47;;;16.10;99.90;;;;;;5087582;28;20227;-72
2021/09/08 06:05:43;;;;;;;18.33;13.67;;;16.20;99.90;;;;;;5074988;28;20207;-73
2021/09/08 06:08:09;;;;;;;16.33;13.73;;;16.20;99.90;;;;;;5067080;28;20748;-72
2021/09/08 06:10:36;;;;;;;15.00;13.10;;;16.20;99.90;;;;;;5067789;28;20300;-74
2021/09/08 06:13:03;;;;;;;15.73;13.77;;;16.20;99.90;;;;;;5067140;28;20233;-74
2021/09/08 06:15:31;;;;;;;15.63;14.03;;;16.30;99.90;;;;;;5066895;28;20211;-74
2021/09/08 06:17:58;;;;;;;17.17;13.60;;;16.40;99.90;;;;;;5079595;28;20207;-72
2021/09/08 06:20:25;;;;;;;15.00;13.40;;;16.40;99.90;;;;;;5086821;28;20257;-73
2021/09/08 06:22:51;;;;;;;14.13;12.73;;;16.40;99.90;;;;;;5087279;28;20207;-72
2021/09/08 06:25:18;;;;;;;14.70;13.03;;;16.50;99.90;;;;;;5087404;28;20238;-72
2021/09/08 06:27:44;;;;;;;15.40;13.63;;;16.50;99.90;;;;;;5087080;28;20214;-72
2021/09/08 06:30:12;;;;;;;15.70;13.77;;;16.60;99.90;;;;;;5087077;28;20266;-72
2021/09/08 06:32:40;;;;;;;17.87;14.07;;;16.60;99.90;;;;;;5086990;28;20231;-72
2021/09/08 06:35:07;;;;;;;16.10;13.53;;;16.70;99.90;;;;;;5087232;28;20214;-72
2021/09/08 06:37:34;;;;;;;18.57;14.47;;;16.70;99.90;;;;;;5086760;28;20617;-72
2021/09/08 06:40:00;;;;;;;16.77;14.03;;;16.80;99.90;;;;;;5087106;28;20299;-72
2021/09/08 06:42:29;;;;;;;17.17;14.03;;;16.80;99.90;;;;;;5086570;28;20695;-72
2021/09/08 06:44:56;;;;;;;16.10;14.40;;;16.90;99.90;;;;;;5086863;28;20227;-72
2021/09/08 06:47:23;;;;;;;19.73;14.83;;;16.90;99.90;;;;;;5087039;28;20680;-72
2021/09/08 06:49:52;;;;;;;16.93;14.20;;;17.00;99.90;;;;;;5086762;28;20241;-72
2021/09/08 06:52:20;;;;;;;16.17;14.47;;;16.90;99.90;;;;;;5087065;28;20215;-72
2021/09/08 06:54:46;;;;;;;15.00;13.40;;;17.10;99.90;;;;;;5071327;28;20199;-72
2021/09/08 06:57:13;;;;;;;16.83;13.57;;;17.10;99.90;;;;;;5066599;28;20616;-72
2021/09/08 06:59:40;;;;;;;16.60;13.20;;;17.10;99.90;;;;;;5066360;28;20211;-72
2021/09/08 07:02:07;;;;;;;13.77;12.37;;;17.20;99.90;;;;;;5066525;28;20398;-72
2021/09/08 07:04:34;;;;;;;16.43;13.40;;;17.20;99.90;;;;;;5066271;28;20317;-72
2021/09/08 07:07:02;;;;;;;17.17;12.50;;;17.30;99.90;;;;;;5066030;28;20206;-72
2021/09/08 07:09:29;;;;;;;12.53;11.30;;;17.30;99.90;;;;;;5066271;28;20308;-72
2021/09/08 07:11:58;;;;;;;15.67;12.10;;;17.40;99.90;;;;;;5065994;28;20606;-72
2021/09/08 07:14:25;;;;;;;12.90;11.33;;;17.40;99.90;;;;;;5066188;28;20264;-72
2021/09/08 07:16:52;;;;;;;12.57;11.37;;;17.40;99.90;;;;;;5066234;28;20227;-72
2021/09/08 07:19:19;;;;;;;14.00;11.63;;;17.50;99.90;;;;;;5066277;28;20211;-72
2021/09/08 07:21:45;;;;;;;13.47;11.33;;;17.60;99.90;;;;;;5066066;28;20269;-73
2021/09/08 07:24:13;;;;;;;13.87;10.87;;;17.60;99.90;;;;;;5065843;28;20235;-73
2021/09/08 07:26:40;;;;;;;15.50;11.97;;;17.70;99.90;;;;;;5065573;28;20754;-73
2021/09/08 07:29:07;;;;;;;12.50;11.30;;;17.70;99.90;;;;;;5066072;28;20618;-74
2021/09/08 07:31:34;;;;;;;11.10;10.00;;;17.80;99.90;;;;;;5065090;28;20211;-74
2021/09/08 07:34:01;;;;;;;13.07;9.97;;;17.80;99.90;;;;;;5078009;28;20235;-74
2021/09/08 07:36:28;;;;;;;15.43;10.70;;;17.90;99.90;;;;;;5089843;28;20264;-74
2021/09/08 07:38:54;;;;;;;11.57;10.30;;;17.90;99.90;;;;;;5075394;28;20239;-74
2021/09/08 07:41:24;;;;;;;11.37;10.17;;;18.00;99.90;;;;;;5086578;28;20207;-74
2021/09/08 07:43:50;;;;;;;12.73;10.03;;;18.00;99.90;;;;;;5086663;28;20769;-74
2021/09/08 07:46:17;;;;;;;11.13;9.80;;;18.10;99.90;;;;;;5086881;28;20217;-74
2021/09/08 07:48:44;;;;;;;13.43;10.00;;;18.20;99.90;;;;;;5086817;28;20243;-74
2021/09/08 07:51:11;;;;;;;11.60;10.50;;;18.30;99.90;;;;;;5086511;28;20584;-74
2021/09/08 07:53:37;;;;;;;10.43;9.33;;;18.30;99.90;;;;;;5086118;28;20203;-74
2021/09/08 07:56:07;;;;;;;13.63;9.33;;;18.40;99.90;;;;;;5086465;28;20243;-74
2021/09/08 07:58:35;;;;;;;9.57;8.57;;;18.50;99.90;;;;;;5086905;28;20892;-74
2021/09/08 08:01:02;;;;;;;12.40;9.90;;;18.60;99.90;;;;;;5086135;28;20886;-74
2021/09/08 08:03:29;;;;;;;11.00;8.67;;;18.60;99.90;;;;;;5086096;28;20238;-73
2021/09/08 08:05:56;;;;;;;11.40;9.40;;;18.60;99.90;;;;;;5086258;28;20214;-74
2021/09/08 08:08:23;;;;;;;10.77;9.20;;;18.70;99.90;;;;;;5086040;28;20714;-74
2021/09/08 08:10:53;;;;;;;10.37;9.27;;;18.80;99.90;;;;;;5086019;28;20267;-74
2021/09/08 08:13:20;;;;;;;9.17;8.27;;;18.80;99.90;;;;;;5086232;28;20222;-74
2021/09/08 08:15:49;;;;;;;9.47;8.57;;;18.90;99.90;;;;;;5085663;28;20672;-74
2021/09/08 08:18:16;;;;;;;8.67;7.87;;;18.90;99.90;;;;;;5086243;28;20206;-74
2021/09/08 08:20:43;;;;;;;8.87;7.97;;;19.00;99.90;;;;;;5086017;28;20206;-74
2021/09/08 08:23:09;;;;;;;12.87;8.53;;;19.00;99.90;;;;;;5086056;28;20211;-74
2021/09/08 08:25:38;;;;;;;8.73;7.83;;;19.10;99.90;;;;;;5085910;28;20230;-74
2021/09/08 08:28:05;;;;;;;11.27;7.77;;;19.20;99.90;;;;;;5086026;28;20804;-76
2021/09/08 08:30:33;;;;;;;11.60;8.43;;;19.20;99.90;;;;;;5086122;28;20276;-74
2021/09/08 08:33:02;;;;;;;9.30;8.30;;;19.30;99.90;;;;;;5086223;28;20238;-74
2021/09/08 08:35:29;;;;;;;9.47;8.23;;;19.30;99.90;;;;;;5086174;28;20210;-74
2021/09/08 08:37:55;;;;;;;10.63;8.30;;;19.30;99.90;;;;;;5086183;28;20379;-74
2021/09/08 08:40:23;;;;;;;8.37;7.67;;;19.50;99.90;;;;;;5086107;28;20207;-74
2021/09/08 08:42:52;;;;;;;9.47;8.40;;;19.50;99.90;;;;;;5085814;28;20267;-74
2021/09/08 08:45:19;;;;;;;8.83;7.93;;;19.60;99.90;;;;;;5086154;28;20314;-74
2021/09/08 08:47:46;;;;;;;9.00;8.10;;;19.70;99.90;;;;;;5086016;28;20295;-74
2021/09/08 08:50:16;;;;;;;9.17;8.13;;;19.80;99.90;;;;;;5086241;28;20260;-74
2021/09/08 08:52:43;;;;;;;8.43;7.63;;;19.80;99.90;;;;;;5085740;28;20232;-74
2021/09/08 08:55:10;;;;;;;13.07;8.93;;;19.80;99.90;;;;;;5085286;28;20913;-74
2021/09/08 08:57:38;;;;;;;8.80;7.90;;;19.90;99.90;;;;;;5085969;28;20215;-74
2021/09/08 09:00:06;;;;;;;10.03;8.00;;;19.90;99.90;;;;;;5085750;28;20291;-74
2021/09/08 09:02:34;;;;;;;9.37;8.30;;;20.10;99.90;;;;;;5085958;28;20211;-74
2021/09/08 09:05:02;;;;;;;9.52;7.60;;;20.20;99.90;;;;;;5086085;28;20272;-74
2021/09/08 09:07:36;;;;;;;8.90;8.00;;;20.20;99.90;;;;;;5085761;28;20226;-74
2021/09/08 09:10:06;;;;;;;8.32;7.05;;;20.30;99.90;;;;;;5086601;28;20240;-74
2021/09/08 09:12:34;;;;;;;9.87;7.37;;;20.40;99.90;;;;;;5086260;28;20821;-74
2021/09/08 09:15:04;;;;;;;8.33;7.63;;;20.50;99.90;;;;;;5086606;28;20238;-74
2021/09/08 09:17:33;;;;;;;9.70;8.20;;;20.40;99.90;;;;;;5086387;28;20625;-73
2021/09/08 09:20:07;;;;;;;8.25;7.55;;;20.50;99.90;;;;;;5086212;28;20207;-74
2021/09/08 09:22:39;;;;;;;8.77;7.83;;;20.50;99.90;;;;;;5085375;28;20198;-74
2021/09/08 09:25:08;;;;;;;8.95;7.40;;;20.50;99.90;;;;;;5085657;28;20225;-74
2021/09/08 09:27:36;;;;;;;7.93;7.22;;;20.50;99.90;;;;;;5085594;28;20256;-74
2021/09/08 09:30:10;;;;;;;12.13;7.72;;;20.60;99.90;;;;;;5086037;28;20222;-74
2021/09/08 09:32:39;;;;;;;8.97;7.87;;;20.70;99.90;;;;;;5080293;28;20226;-74
2021/09/08 09:35:07;;;;;;;8.15;7.25;;;20.80;99.90;;;;;;5065794;28;20284;-74
2021/09/08 09:37:35;;;;;;;9.15;7.97;;;20.90;99.90;;;;;;5065410;28;20215;-74
2021/09/08 09:40:05;;;;;;;10.35;7.30;;;21.00;99.90;;;;;;5065410;28;21066;-74
2021/09/08 09:42:32;;;;;;;8.50;7.70;;;21.10;99.90;;;;;;5065319;28;20216;-74
2021/09/08 09:45:00;;;;;;;9.55;7.80;;;21.10;99.90;;;;;;5065514;28;20710;-74
2021/09/08 09:47:27;;;;;;;7.47;6.73;;;21.10;99.90;;;;;;5065799;28;20292;-74
2021/09/08 09:49:55;;;;;;;8.55;7.65;;;21.20;99.90;;;;;;5065042;28;20673;-74
2021/09/08 09:52:24;;;;;;;9.07;7.50;;;21.20;99.90;;;;;;5065498;28;20211;-74
2021/09/08 09:54:51;;;;;;;8.88;7.97;;;21.30;99.90;;;;;;5064964;28;20608;-74
2021/09/08 09:57:19;;;;;;;9.50;7.03;;;21.30;99.90;;;;;;5068940;28;20622;-74
2021/09/08 09:59:46;;;;;;;8.82;7.55;;;21.30;99.90;;;;;;5068395;28;20276;-74
2021/09/08 10:02:13;;;;;;;8.27;7.68;;;21.40;99.90;;;;;;5068981;28;20212;-73
2021/09/08 10:04:39;;;;;;;10.18;7.75;;;21.50;99.90;;;;;;5068807;28;20262;-74
2021/09/08 10:07:08;;;;;;;7.85;7.05;;;21.60;99.90;;;;;;5068717;28;20255;-73
2021/09/08 10:09:36;;;;;;;7.65;6.93;;;21.60;99.90;;;;;;5068669;28;20223;-74
2021/09/08 10:12:05;;;;;;;8.00;7.40;;;21.60;99.90;;;;;;5068526;28;20218;-74
2021/09/08 10:14:34;;;;;;;8.20;7.40;;;21.80;99.90;;;;;;5068018;28;20820;-74
2021/09/08 10:17:02;;;;;;;8.38;7.57;;;21.80;99.90;;;;;;5067991;28;20215;-74
2021/09/08 10:19:30;;;;;;;8.60;7.80;;;21.80;99.90;;;;;;5068229;28;20289;-74
2021/09/08 10:22:06;;;;;;;8.15;7.28;;;21.90;99.90;;;;;;5068353;28;20285;-74
2021/09/08 10:24:33;;;;;;;9.40;7.68;;;22.00;99.90;;;;;;5068039;28;20389;-74
2021/09/08 10:27:00;;;;;;;7.57;6.88;;;22.10;99.90;;;;;;5068047;28;20648;-73
2021/09/08 10:29:28;;;;;;;8.05;7.00;;;22.10;99.90;;;;;;5068179;28;20343;-74
2021/09/08 10:31:59;;;;;;;8.75;7.90;;;22.20;99.90;;;;;;5067731;28;20254;-74
2021/09/08 10:34:26;;;;;;;9.70;8.15;;;22.40;99.90;;;;;;5068022;28;20204;-74
2021/09/08 10:36:54;;;;;;;9.82;7.82;;;22.40;99.90;;;;;;5067952;28;20207;-73
2021/09/08 10:39:21;;;;;;;9.02;8.23;;;22.50;99.90;;;;;;5068060;28;20285;-74
2021/09/08 10:41:50;;;;;;;8.50;7.60;;;22.50;99.90;;;;;;5067954;28;20215;-74
2021/09/08 10:44:18;;;;;;;8.18;7.38;;;22.60;99.90;;;;;;5067802;28;20302;-74
2021/09/08 10:46:50;;;;;;;9.07;8.27;;;22.60;99.90;;;;;;5067305;28;20689;-74
2021/09/08 10:49:49;;;;;;;9.35;8.25;;;22.70;99.90;;;;;;5067967;28;20211;-73
2021/09/08 10:52:40;;;;;;;8.02;7.32;;;22.80;99.90;;;;;;5067954;28;20715;-74
2021/09/08 10:55:12;;;;;;;7.90;7.22;;;22.90;99.90;;;;;;5067469;28;20274;-73
2021/09/08 10:57:56;;;;;;;9.05;8.07;;;22.90;99.90;;;;;;5067665;28;20195;-73
2021/09/08 11:00:27;;;;;;;9.75;7.82;;;23.00;99.90;;;;;;5066718;28;20199;-73
2021/09/08 11:02:54;;;;;;;8.93;8.05;;;23.00;99.90;;;;;;5064298;28;20195;-73
2021/09/08 11:05:22;;;;;;;8.63;7.45;;;23.10;99.90;;;;;;5064183;28;20322;-73
2021/09/08 11:07:50;;;;;;;10.30;8.18;;;23.10;99.90;;;;;;5063874;28;20284;-73
2021/09/08 11:10:26;;;;;;;8.43;7.60;;;23.30;99.90;;;;;;5063973;28;20691;-73
2021/09/08 11:12:55;;;;;;;9.70;7.68;;;23.30;99.90;;;;;;5063977;28;20273;-73
2021/09/08 11:15:34;;;;;;;9.48;7.15;;;23.40;99.90;;;;;;5063569;28;20249;-73
2021/09/08 11:18:02;;;;;;;8.38;7.57;;;23.50;99.90;;;;;;5063482;28;20210;-73
2021/09/08 11:20:30;;;;;;;7.85;7.20;;;23.60;99.90;;;;;;5063380;28;20211;-73
2021/09/08 11:23:01;;;;;;;8.73;7.88;;;23.80;99.90;;;;;;5063088;28;20203;-74
2021/09/08 11:25:30;;;;;;;8.38;7.60;;;23.80;99.90;;;;;;5063142;28;20308;-73
2021/09/08 11:27:57;;;;;;;8.52;7.63;;;23.90;99.90;;;;;;5062907;28;20207;-74
2021/09/08 11:30:29;;;;;;;9.50;7.63;;;24.00;99.90;;;;;;5082604;28;20207;-73
2021/09/08 11:32:58;;;;;;;8.98;7.43;;;24.10;99.90;;;;;;5087279;28;20226;-73
2021/09/08 11:35:38;;;;;;;8.15;7.35;;;24.20;99.90;;;;;;5087482;28;20203;-73
2021/09/08 11:38:07;;;;;;;10.13;7.45;;;24.30;99.90;;;;;;5086778;28;20195;-73
2021/09/08 11:40:34;;;;;;;8.40;7.60;;;24.30;99.90;;;;;;5086921;28;20706;-73
2021/09/08 11:43:01;;;;;;;7.72;7.03;;;24.40;99.90;;;;;;5087078;28;20228;-73
2021/09/08 11:45:29;;;;;;;7.88;6.80;;;24.50;99.90;;;;;;5086849;28;20661;-73
2021/09/08 11:47:56;;;;;;;7.43;6.65;;;24.60;99.90;;;;;;5087048;28;20242;-73
2021/09/08 11:50:23;;;;;;;6.82;6.32;;;24.70;99.90;;;;;;5086970;28;20260;-73
2021/09/08 11:52:55;;;;;;;9.00;6.90;;;24.80;99.90;;;;;;5086913;28;20206;-73
2021/09/08 11:55:27;;;;;;;7.32;6.63;;;25.00;99.90;;;;;;5086789;28;20250;-73
2021/09/08 11:57:54;;;;;;;7.43;6.53;;;25.10;99.90;;;;;;5086895;28;20206;-73
2021/09/08 12:00:21;;;;;;;7.60;6.85;;;25.40;99.90;;;;;;5086950;28;20264;-73
2021/09/08 12:02:48;;;;;;;8.32;7.47;;;25.40;99.90;;;;;;5086934;28;20207;-73
2021/09/08 12:05:22;;;;;;;8.43;7.28;;;25.50;99.90;;;;;;5086602;28;20226;-73
2021/09/08 12:07:58;;;;;;;8.40;7.60;;;25.50;99.90;;;;;;5087210;28;20244;-73
2021/09/08 12:10:36;;;;;;;8.13;6.63;;;25.50;99.90;;;;;;5087496;28;20252;-73
2021/09/08 12:13:03;;;;;;;7.78;7.18;;;25.60;99.90;;;;;;5087632;28;20259;-73
2021/09/08 12:15:34;;;;;;;7.38;6.68;;;25.70;99.90;;;;;;5087234;28;20291;-73
2021/09/08 12:18:15;;;;;;;7.10;6.40;;;25.80;99.60;;;;;;5086686;28;20210;-73
2021/09/08 12:20:42;;;;;;;6.85;6.18;;;25.80;99.80;;;;;;5086519;28;21077;-73
2021/09/08 12:23:23;;;;;;;6.70;6.20;;;25.90;99.60;;;;;;5087118;28;20307;-73
2021/09/08 12:26:04;;;;;;;7.25;6.55;;;26.10;99.60;;;;;;5086198;28;20226;-73
2021/09/08 12:28:31;;;;;;;7.78;6.15;;;26.10;98.80;;;;;;5085963;28;20218;-73
2021/09/08 12:31:18;;;;;;;6.55;5.70;;;26.10;98.40;;;;;;5085942;28;20707;-73
2021/09/08 12:34:00;;;;;;;6.57;6.07;;;26.10;98.40;;;;;;5086020;28;20304;-73
2021/09/08 12:36:30;;;;;;;5.80;5.28;;;26.20;98.30;;;;;;5085984;28;20203;-73
2021/09/08 12:39:12;;;;;;;5.97;5.47;;;26.30;97.30;;;;;;5085626;28;20698;-73
2021/09/08 12:41:53;;;;;;;6.63;6.03;;;26.20;97.10;;;;;;5085677;28;20233;-73
2021/09/08 12:44:27;;;;;;;5.93;5.43;;;26.30;97.40;;;;;;5085921;28;20604;-73
2021/09/08 12:46:54;;;;;;;5.80;5.40;;;26.40;97.70;;;;;;5085713;28;20227;-73